Terminal Aerodrome Forecast
Issued by NWS

Home | Current Version | Previous Version | Text Only | Print | Product List | Glossary On
Versions: 1 2 3 4 5 6 7 8 9 10 11 12 13 14 15 16 17
000
FTUS46 KMTR 192300
TAFSTS
TAF
KSTS 192320Z 2000/2024 16010KT P6SM SKC
     FM200300 15004KT P6SM SKC
     FM200600 00000KT P6SM BKN007
     FM200900 00000KT 1/2SM FG OVC002
     FM201700 VRB03KT P6SM SCT007
     FM201800 17010KT P6SM SKC=

USA.gov is the U.S. government's official web portal to all federal, state and local government web resources and services.